createdAt,value
2018-02-01T00:00:33.042Z,7.35
2018-02-01T00:02:09.941Z,7.31
2018-02-01T00:03:46.407Z,7.58
2018-02-01T00:05:22.828Z,7.85
2018-02-01T00:06:59.148Z,8.09
2018-02-01T00:08:36.124Z,7.95
2018-02-01T00:10:13.447Z,8.04
2018-02-01T00:11:49.856Z,8.01
2018-02-01T00:13:26.375Z,8.14
2018-02-01T00:15:05.474Z,8.06
2018-02-01T00:16:42.030Z,8.10
2018-02-01T00:18:18.769Z,7.92
2018-02-01T00:19:55.171Z,8.17
2018-02-01T00:21:32.432Z,8.18
2018-02-01T00:23:09.133Z,7.98
2018-02-01T00:24:45.623Z,8.21
2018-02-01T00:26:22.022Z,8.29
2018-02-01T00:27:58.547Z,8.14
2018-02-01T00:29:35.832Z,8.24
2018-02-01T00:31:17.294Z,8.35
2018-02-01T00:32:54.558Z,8.31
2018-02-01T00:34:31.384Z,7.75
2018-02-01T00:36:07.980Z,7.21
2018-02-01T00:37:44.625Z,7.22
2018-02-01T00:39:21.080Z,7.39
2018-02-01T00:40:58.028Z,7.35
2018-02-01T00:42:35.342Z,7.19
2018-02-01T00:44:11.870Z,7.17
2018-02-01T00:45:48.295Z,7.05
2018-02-01T00:47:26.131Z,7.02
2018-02-01T00:49:02.635Z,6.97
2018-02-01T00:50:39.033Z,7.31
2018-02-01T00:52:15.606Z,7.36
2018-02-01T00:53:53.953Z,7.49
2018-02-01T00:55:30.462Z,7.32
2018-02-01T00:57:06.887Z,7.51
2018-02-01T00:58:43.390Z,7.46
2018-02-01T01:00:20.598Z,7.23
2018-02-01T01:01:57.187Z,7.43
2018-02-01T01:03:33.880Z,7.78
2018-02-01T01:05:10.471Z,7.86
2018-02-01T01:06:46.975Z,8.07
2018-02-01T01:08:25.023Z,8.14
2018-02-01T01:10:01.711Z,8.29
2018-02-01T01:11:38.711Z,8.37
2018-02-01T01:13:15.107Z,8.18
2018-02-01T01:14:52.927Z,8.14
2018-02-01T01:16:29.442Z,8.17
2018-02-01T01:18:06.384Z,8.18
2018-02-01T01:19:43.340Z,7.99
2018-02-01T01:21:19.733Z,7.32
2018-02-01T01:22:56.350Z,6.81
2018-02-01T01:24:32.783Z,6.52
2018-02-01T01:26:09.341Z,6.52
2018-02-01T01:27:46.604Z,6.73
2018-02-01T01:29:23.071Z,6.72
2018-02-01T01:31:00.345Z,6.54
2018-02-01T01:32:37.753Z,6.37
2018-02-01T01:34:14.205Z,6.69
2018-02-01T01:35:51.396Z,6.72
2018-02-01T01:37:31.275Z,6.84
2018-02-01T01:39:07.703Z,7.17
2018-02-01T01:40:44.163Z,7.08
2018-02-01T01:42:21.737Z,7.07
2018-02-01T01:43:58.935Z,7.07
2018-02-01T01:45:35.579Z,6.85
2018-02-01T01:47:12.696Z,7.09
2018-02-01T01:48:51.060Z,7.00
2018-02-01T01:50:28.222Z,7.02
2018-02-01T01:52:04.937Z,7.29
2018-02-01T01:53:41.663Z,7.41
2018-02-01T01:55:19.220Z,7.58
2018-02-01T01:56:55.730Z,7.95
2018-02-01T01:58:32.208Z,8.16
2018-02-01T02:00:09.498Z,8.36
2018-02-01T02:01:46.436Z,8.51
2018-02-01T02:03:23.443Z,8.60
2018-02-01T02:05:00.613Z,8.37
2018-02-01T02:06:39.237Z,7.74
2018-02-01T02:08:16.085Z,7.96
2018-02-01T02:09:53.033Z,8.14
2018-02-01T02:11:29.447Z,8.14
2018-02-01T02:13:06.621Z,8.05
2018-02-01T02:14:44.479Z,7.82
2018-02-01T02:16:25.065Z,7.90
2018-02-01T02:18:02.081Z,7.84
2018-02-01T02:19:38.656Z,7.86
2018-02-01T02:21:15.550Z,7.92
2018-02-01T02:22:51.949Z,7.98
2018-02-01T02:24:28.349Z,7.93
2018-02-01T02:26:04.782Z,7.80
2018-02-01T02:27:41.662Z,7.74
2018-02-01T02:29:18.061Z,7.72
2018-02-01T02:30:54.420Z,7.75
2018-02-01T02:34:16.078Z,7.26
2018-02-01T02:35:52.544Z,6.73
2018-02-01T02:37:28.861Z,6.90
2018-02-01T02:39:05.996Z,7.06
2018-02-01T02:40:42.386Z,7.31
2018-02-01T02:42:18.740Z,7.32
2018-02-01T02:43:55.970Z,7.44
2018-02-01T02:45:33.380Z,7.32
2018-02-01T02:47:09.762Z,7.66
2018-02-01T02:48:46.065Z,7.78
2018-02-01T02:50:23.148Z,7.90
2018-02-01T02:52:00.598Z,7.89
2018-02-01T02:53:40.602Z,7.61
2018-02-01T02:55:16.910Z,7.68
2018-02-01T02:56:53.885Z,7.71
2018-02-01T02:58:30.719Z,7.68
2018-02-01T03:00:08.289Z,7.44
2018-02-01T03:01:44.829Z,7.55
2018-02-01T03:03:21.141Z,7.62
2018-02-01T03:04:58.789Z,7.59
2018-02-01T03:06:35.858Z,7.49
2018-02-01T03:08:12.340Z,7.38
2018-02-01T03:09:49.429Z,7.31
2018-02-01T03:11:27.075Z,7.26
2018-02-01T03:13:03.377Z,7.26
2018-02-01T03:14:39.773Z,7.18
2018-02-01T03:16:16.055Z,7.25
2018-02-01T03:17:53.179Z,7.15
2018-02-01T03:19:29.927Z,6.93
2018-02-01T03:21:06.315Z,6.80
2018-02-01T03:22:43.145Z,6.76
2018-02-01T03:24:19.797Z,6.70
2018-02-01T03:25:56.738Z,6.55
2018-02-01T03:27:33.899Z,6.34
2018-02-01T03:29:10.297Z,6.19
2018-02-01T03:30:47.043Z,6.44
2018-02-01T03:32:23.636Z,6.53
2018-02-01T03:34:00.010Z,6.54
2018-02-01T03:35:36.344Z,6.48
2018-02-01T03:37:12.709Z,6.49
2018-02-01T03:38:50.125Z,6.37
2018-02-01T03:40:26.503Z,6.42
2018-02-01T03:42:03.112Z,6.64
2018-02-01T03:43:40.244Z,6.76
2018-02-01T03:45:17.464Z,6.78
2018-02-01T03:46:53.875Z,6.78
2018-02-01T03:48:30.226Z,6.75
2018-02-01T03:50:06.767Z,6.69
2018-02-01T03:51:43.090Z,6.75
2018-02-01T03:53:19.702Z,6.75
2018-02-01T03:54:56.047Z,6.73
2018-02-01T03:56:32.415Z,6.68
2018-02-01T03:58:09.516Z,6.69
2018-02-01T03:59:46.361Z,6.67
2018-02-01T04:01:22.786Z,6.61
2018-02-01T04:02:59.958Z,6.62
2018-02-01T04:04:36.379Z,6.64
2018-02-01T04:06:13.042Z,6.72
2018-02-01T04:07:49.429Z,6.75
2018-02-01T04:09:26.571Z,6.62
2018-02-01T04:11:03.395Z,6.48
2018-02-01T04:12:40.110Z,6.39
2018-02-01T04:14:16.660Z,6.39
2018-02-01T04:15:52.947Z,6.46
2018-02-01T04:17:30.824Z,6.44
2018-02-01T04:19:07.392Z,6.35
2018-02-01T04:20:44.179Z,6.28
2018-02-01T04:22:20.744Z,5.92
2018-02-01T04:23:57.833Z,6.01
2018-02-01T04:25:34.367Z,6.27
2018-02-01T04:27:10.652Z,6.36
2018-02-01T04:28:47.785Z,6.38
2018-02-01T04:30:24.138Z,6.46
2018-02-01T04:32:00.933Z,6.56
2018-02-01T04:33:37.394Z,6.64
2018-02-01T04:35:14.603Z,6.28
2018-02-01T04:36:51.105Z,6.22
2018-02-01T04:38:30.226Z,6.47
2018-02-01T04:40:06.771Z,6.56
2018-02-01T04:41:43.892Z,6.62
2018-02-01T04:43:20.173Z,6.63
2018-02-01T04:44:57.597Z,6.66
2018-02-01T04:46:33.955Z,6.56
2018-02-01T04:48:10.288Z,6.44
2018-02-01T04:49:47.361Z,6.53
2018-02-01T04:51:24.017Z,6.60
2018-02-01T04:53:00.406Z,6.48
2018-02-01T04:54:36.862Z,6.43
2018-02-01T04:56:13.177Z,6.49
2018-02-01T04:57:49.804Z,6.52
2018-02-01T04:59:27.373Z,6.53
2018-02-01T05:01:04.960Z,6.63
2018-02-01T05:02:41.209Z,6.59
2018-02-01T05:04:17.532Z,6.50
2018-02-01T05:05:53.998Z,6.48
2018-02-01T05:07:30.868Z,6.48
2018-02-01T05:09:07.267Z,6.39
2018-02-01T05:10:44.105Z,6.58
2018-02-01T05:12:20.396Z,6.68
2018-02-01T05:13:56.731Z,6.69
2018-02-01T05:15:34.928Z,6.66
2018-02-01T05:17:11.642Z,6.59
2018-02-01T05:18:49.529Z,6.47
2018-02-01T05:20:25.863Z,6.45
2018-02-01T05:22:03.686Z,6.55
2018-02-01T05:23:40.324Z,6.56
2018-02-01T05:25:16.597Z,6.34
2018-02-01T05:26:54.236Z,5.96
2018-02-01T05:28:30.771Z,5.72
2018-02-01T05:30:07.730Z,6.01
2018-02-01T05:31:45.240Z,6.39
2018-02-01T05:33:21.676Z,6.64
2018-02-01T05:34:58.832Z,6.84
2018-02-01T05:36:36.376Z,6.95
2018-02-01T05:38:12.726Z,6.95
2018-02-01T05:39:49.022Z,6.98
2018-02-01T05:41:25.506Z,7.10
2018-02-01T05:43:02.324Z,7.13
2018-02-01T05:44:38.729Z,7.08
2018-02-01T05:46:15.197Z,7.18
2018-02-01T05:47:51.619Z,7.25
2018-02-01T05:49:28.087Z,7.35
2018-02-01T05:51:06.231Z,7.36
2018-02-01T05:52:42.590Z,7.37
2018-02-01T05:54:18.953Z,7.36
2018-02-01T05:56:00.879Z,7.33
2018-02-01T05:57:37.345Z,7.28
2018-02-01T05:59:14.504Z,7.31
2018-02-01T06:00:50.832Z,7.22
2018-02-01T06:02:27.671Z,7.18
2018-02-01T06:04:04.862Z,7.10
2018-02-01T06:05:41.996Z,7.08
2018-02-01T06:07:18.358Z,7.07
2018-02-01T06:08:55.433Z,6.98
2018-02-01T06:10:32.425Z,6.89
2018-02-01T06:12:08.730Z,6.82
2018-02-01T06:13:45.161Z,6.80
2018-02-01T06:15:21.974Z,6.74
2018-02-01T06:16:59.032Z,6.72
2018-02-01T06:18:36.229Z,6.63
2018-02-01T06:20:12.652Z,6.61
2018-02-01T06:21:49.303Z,6.53
2018-02-01T06:23:25.684Z,6.40
2018-02-01T06:25:02.171Z,6.34
2018-02-01T06:26:38.641Z,6.29
2018-02-01T06:28:16.116Z,6.22
2018-02-01T06:29:53.300Z,6.24
2018-02-01T06:31:30.449Z,6.17
2018-02-01T06:33:06.794Z,6.00
2018-02-01T06:34:43.163Z,6.01
2018-02-01T06:36:19.636Z,5.97
2018-02-01T06:37:56.320Z,5.85
2018-02-01T06:39:32.786Z,5.83
2018-02-01T06:41:10.292Z,5.71
2018-02-01T06:42:48.132Z,5.67
2018-02-01T06:44:24.764Z,5.90
2018-02-01T06:46:03.914Z,5.96
2018-02-01T06:47:40.574Z,6.05
2018-02-01T06:49:16.910Z,6.09
2018-02-01T06:50:53.267Z,6.07
2018-02-01T06:52:30.380Z,6.09
2018-02-01T06:54:07.043Z,6.07
2018-02-01T06:55:43.434Z,6.04
2018-02-01T06:57:19.919Z,6.08
2018-02-01T06:58:56.405Z,6.03
2018-02-01T07:00:39.457Z,5.94
2018-02-01T07:02:16.131Z,6.10
2018-02-01T07:03:53.609Z,6.31
2018-02-01T07:05:30.095Z,6.39
2018-02-01T07:07:06.721Z,6.33
2018-02-01T07:08:43.155Z,6.37
2018-02-01T07:10:19.559Z,6.35
2018-02-01T07:11:55.994Z,6.35
2018-02-01T07:13:33.352Z,6.38
2018-02-01T07:15:10.777Z,6.31
2018-02-01T07:16:49.982Z,6.40
2018-02-01T07:18:27.615Z,6.52
2018-02-01T07:20:04.872Z,6.60
2018-02-01T07:21:42.622Z,6.56
2018-02-01T07:23:19.031Z,6.66
2018-02-01T07:24:56.176Z,6.71
2018-02-01T07:26:33.767Z,6.76
2018-02-01T07:28:10.875Z,6.83
2018-02-01T07:29:47.952Z,6.96
2018-02-01T07:31:25.501Z,7.12
2018-02-01T07:33:02.333Z,6.86
2018-02-01T07:34:38.698Z,7.00
2018-02-01T07:36:15.071Z,7.05
2018-02-01T07:37:52.234Z,7.06
2018-02-01T07:39:29.814Z,6.96
2018-02-01T07:41:06.386Z,7.24
2018-02-01T07:42:42.712Z,7.20
2018-02-01T07:44:19.300Z,7.29
2018-02-01T07:45:56.325Z,7.26
2018-02-01T07:47:33.552Z,7.53
2018-02-01T07:49:09.950Z,7.80
2018-02-01T07:50:46.418Z,8.03
2018-02-01T07:52:23.355Z,8.02
2018-02-01T07:54:00.446Z,7.98
2018-02-01T07:55:36.843Z,7.83
2018-02-01T07:57:13.549Z,7.73
2018-02-01T07:58:50.400Z,7.56
2018-02-01T08:00:28.120Z,7.46
2018-02-01T08:02:04.541Z,7.50
2018-02-01T08:03:40.962Z,7.51
2018-02-01T08:05:17.864Z,7.56
2018-02-01T08:06:54.876Z,7.55
2018-02-01T08:10:16.594Z,7.28
2018-02-01T08:11:53.244Z,7.18
2018-02-01T08:13:29.544Z,7.01
2018-02-01T08:15:05.933Z,6.95
2018-02-01T08:16:42.288Z,6.98
2018-02-01T08:18:20.164Z,7.06
2018-02-01T08:19:56.519Z,7.18
2018-02-01T08:21:33.231Z,7.16
2018-02-01T08:23:10.206Z,7.25
2018-02-01T08:24:47.789Z,7.27
2018-02-01T08:26:25.007Z,7.32
2018-02-01T08:28:01.434Z,7.18
2018-02-01T08:29:38.805Z,7.05
2018-02-01T08:31:15.654Z,6.93
2018-02-01T08:32:52.044Z,6.92
2018-02-01T08:34:28.313Z,6.96
2018-02-01T08:36:04.683Z,6.93
2018-02-01T08:37:42.541Z,6.88
2018-02-01T08:39:18.941Z,6.79
2018-02-01T08:40:55.189Z,6.92
2018-02-01T08:42:31.493Z,6.94
2018-02-01T08:44:08.402Z,6.95
2018-02-01T08:45:44.973Z,6.97
2018-02-01T08:47:21.356Z,6.99
2018-02-01T08:48:57.854Z,7.01
2018-02-01T08:50:34.486Z,6.94
2018-02-01T08:52:10.851Z,6.94
2018-02-01T08:53:47.304Z,6.73
2018-02-01T08:55:23.665Z,6.76
2018-02-01T08:57:00.830Z,6.90
2018-02-01T08:58:37.979Z,6.71
2018-02-01T09:00:16.722Z,7.01
2018-02-01T09:01:53.882Z,7.16
2018-02-01T09:03:30.537Z,7.17
2018-02-01T09:05:07.147Z,7.07
2018-02-01T09:06:43.535Z,7.12
2018-02-01T09:08:19.814Z,7.18
2018-02-01T09:09:56.608Z,6.99
2018-02-01T09:11:33.047Z,7.07
2018-02-01T09:13:09.727Z,7.07
2018-02-01T09:14:46.907Z,7.25
2018-02-01T09:16:24.596Z,7.39
2018-02-01T09:18:01.375Z,7.02
2018-02-01T09:19:38.406Z,7.32
2018-02-01T09:21:15.633Z,7.45
2018-02-01T09:22:52.569Z,7.42
2018-02-01T09:24:29.154Z,7.24
2018-02-01T09:26:05.515Z,7.08
2018-02-01T09:27:42.757Z,7.13
2018-02-01T09:29:19.393Z,7.15
2018-02-01T09:30:55.846Z,7.20
2018-02-01T09:32:32.349Z,7.27
2018-02-01T09:34:08.790Z,7.33
2018-02-01T09:35:45.500Z,7.32
2018-02-01T09:37:22.714Z,7.29
2018-02-01T09:38:59.068Z,7.33
2018-02-01T09:40:35.468Z,7.11
2018-02-01T09:42:13.124Z,7.25
2018-02-01T09:43:49.514Z,7.30
2018-02-01T09:45:28.253Z,7.29
2018-02-01T09:47:04.816Z,7.37
2018-02-01T09:48:42.423Z,7.52
2018-02-01T09:50:18.769Z,7.55
2018-02-01T09:51:55.196Z,7.39
2018-02-01T09:53:31.540Z,7.43
2018-02-01T09:55:08.284Z,7.49
2018-02-01T09:56:44.711Z,7.46
2018-02-01T09:58:20.976Z,7.40
2018-02-01T09:59:57.270Z,7.31
2018-02-01T10:01:35.595Z,7.42
2018-02-01T10:03:12.704Z,7.48
2018-02-01T10:04:49.020Z,7.55
2018-02-01T10:06:25.847Z,7.70
2018-02-01T10:08:02.809Z,7.75
2018-02-01T10:09:40.237Z,7.75
2018-02-01T10:11:16.762Z,7.64
2018-02-01T10:12:54.054Z,7.61
2018-02-01T10:14:32.647Z,7.64
2018-02-01T10:16:09.260Z,7.52
2018-02-01T10:17:46.317Z,7.73
2018-02-01T10:19:22.707Z,7.88
2018-02-01T10:20:59.501Z,7.98
2018-02-01T10:22:35.966Z,7.93
2018-02-01T10:24:12.859Z,7.79
2018-02-01T10:25:49.545Z,7.86
2018-02-01T10:27:26.291Z,8.09
2018-02-01T10:29:02.717Z,8.15
2018-02-01T10:30:40.230Z,8.24
2018-02-01T10:32:16.677Z,8.34
2018-02-01T10:33:53.404Z,8.31
2018-02-01T10:35:29.752Z,8.08
2018-02-01T10:37:06.202Z,8.16
2018-02-01T10:38:42.711Z,8.33
2018-02-01T10:40:19.127Z,8.43
2018-02-01T10:41:55.582Z,8.39
2018-02-01T10:43:33.587Z,8.47
2018-02-01T10:45:11.002Z,8.79
2018-02-01T10:46:47.950Z,8.60
2018-02-01T10:48:24.399Z,8.58
2018-02-01T10:50:00.997Z,8.33
2018-02-01T10:51:37.453Z,8.32
2018-02-01T10:53:16.503Z,8.02
2018-02-01T10:54:52.942Z,8.08
2018-02-01T10:56:29.353Z,8.19
2018-02-01T10:58:05.669Z,8.06
2018-02-01T10:59:43.307Z,8.05
2018-02-01T11:01:26.528Z,8.23
2018-02-01T11:03:03.098Z,8.32
2018-02-01T11:04:40.321Z,8.27
2018-02-01T11:06:17.064Z,8.32
2018-02-01T11:07:54.562Z,8.38
2018-02-01T11:09:30.969Z,8.20
2018-02-01T11:11:07.435Z,8.30
2018-02-01T11:12:44.462Z,8.23
2018-02-01T11:14:21.756Z,7.89
2018-02-01T11:15:59.151Z,8.05
2018-02-01T11:17:35.825Z,8.04
2018-02-01T11:19:12.454Z,7.99
2018-02-01T11:20:49.826Z,7.94
2018-02-01T11:22:26.312Z,8.16
2018-02-01T11:24:03.589Z,8.20
2018-02-01T11:25:40.724Z,8.05
2018-02-01T11:27:17.164Z,7.91
2018-02-01T11:28:53.728Z,8.04
2018-02-01T11:30:30.729Z,8.24
2018-02-01T11:32:07.868Z,8.27
2018-02-01T11:33:44.638Z,8.39
2018-02-01T11:35:21.323Z,8.30
2018-02-01T11:36:58.551Z,8.42
2018-02-01T11:38:35.464Z,8.46
2018-02-01T11:40:11.937Z,8.18
2018-02-01T11:41:48.283Z,8.51
2018-02-01T11:43:25.459Z,8.51
2018-02-01T11:45:02.308Z,8.52
2018-02-01T11:46:40.450Z,8.23
2018-02-01T11:48:17.390Z,8.16
2018-02-01T11:49:53.880Z,8.23
2018-02-01T11:51:30.869Z,8.34
2018-02-01T11:53:07.221Z,8.33
2018-02-01T11:54:43.576Z,8.46
2018-02-01T11:56:20.295Z,8.29
2018-02-01T11:57:58.038Z,7.95
2018-02-01T11:59:34.396Z,7.66
2018-02-01T12:01:10.759Z,8.00
2018-02-01T12:02:47.695Z,8.15
2018-02-01T12:04:25.689Z,8.38
2018-02-01T12:06:03.488Z,8.24
2018-02-01T12:07:41.284Z,8.33
2018-02-01T12:09:18.487Z,8.54
2018-02-01T12:10:55.577Z,8.69
2018-02-01T12:12:32.998Z,8.30
2018-02-01T12:14:09.415Z,8.33
2018-02-01T12:15:46.544Z,8.52
2018-02-01T12:17:23.412Z,8.30
2018-02-01T12:18:59.804Z,8.30
2018-02-01T12:20:36.066Z,8.50
2018-02-01T12:22:12.395Z,8.62
2018-02-01T12:23:49.539Z,8.46
2018-02-01T12:25:26.718Z,8.32
2018-02-01T12:27:03.956Z,8.50
2018-02-01T12:28:40.784Z,8.89
2018-02-01T12:30:20.044Z,8.84
2018-02-01T12:31:56.442Z,8.67
2018-02-01T12:33:33.581Z,8.55
2018-02-01T12:35:10.814Z,8.40
2018-02-01T12:36:47.833Z,8.29
2018-02-01T12:38:25.243Z,7.96
2018-02-01T12:40:02.637Z,8.02
2018-02-01T12:41:39.022Z,8.25
2018-02-01T12:43:15.702Z,8.14
2018-02-01T12:44:52.090Z,8.59
2018-02-01T12:46:28.586Z,8.64
2018-02-01T12:48:05.167Z,8.82
2018-02-01T12:49:42.109Z,8.70
2018-02-01T12:51:18.406Z,8.50
2018-02-01T12:52:54.692Z,8.40
2018-02-01T12:54:31.352Z,8.12
2018-02-01T12:56:08.373Z,8.04
2018-02-01T12:57:45.682Z,8.16
2018-02-01T12:59:22.040Z,8.16
2018-02-01T13:00:59.217Z,8.22
2018-02-01T13:02:36.360Z,8.38
2018-02-01T13:04:12.814Z,8.23
2018-02-01T13:05:49.111Z,7.57
2018-02-01T13:07:25.905Z,7.51
2018-02-01T13:09:02.797Z,7.89
2018-02-01T13:10:39.880Z,8.18
2018-02-01T13:12:16.197Z,8.03
2018-02-01T13:13:52.672Z,7.59
2018-02-01T13:15:29.584Z,7.33
2018-02-01T13:17:05.975Z,7.51
2018-02-01T13:18:43.710Z,7.76
2018-02-01T13:20:20.054Z,7.89
2018-02-01T13:21:57.065Z,7.98
2018-02-01T13:23:34.572Z,8.11
2018-02-01T13:25:11.408Z,7.96
2018-02-01T13:26:47.818Z,7.94
2018-02-01T13:28:25.321Z,7.77
2018-02-01T13:30:01.730Z,7.49
2018-02-01T13:31:38.135Z,7.63
2018-02-01T13:33:14.604Z,7.64
2018-02-01T13:34:51.649Z,7.56
2018-02-01T13:36:29.146Z,7.30
2018-02-01T13:38:05.536Z,7.22
2018-02-01T13:39:42.041Z,7.26
2018-02-01T13:41:18.690Z,6.95
2018-02-01T13:42:55.355Z,7.03
2018-02-01T13:44:31.938Z,7.20
2018-02-01T13:46:08.365Z,7.19
2018-02-01T13:47:45.190Z,6.67
2018-02-01T13:49:21.666Z,6.63
2018-02-01T13:50:58.507Z,6.67
2018-02-01T13:52:35.200Z,6.83
2018-02-01T13:54:12.274Z,7.03
2018-02-01T13:55:49.236Z,6.94
2018-02-01T13:57:25.703Z,6.96
2018-02-01T13:59:02.128Z,6.78
2018-02-01T14:00:38.873Z,6.96
2018-02-01T14:02:16.090Z,6.88
2018-02-01T14:03:53.078Z,7.19
2018-02-01T14:05:29.919Z,7.16
2018-02-01T14:07:06.350Z,7.16
2018-02-01T14:08:43.328Z,7.20
2018-02-01T14:10:20.039Z,7.49
2018-02-01T14:11:57.120Z,7.56
2018-02-01T14:13:34.153Z,7.14
2018-02-01T14:15:11.014Z,7.39
2018-02-01T14:16:49.654Z,7.14
2018-02-01T14:18:29.779Z,6.89
2018-02-01T14:20:06.643Z,6.84
2018-02-01T14:21:43.462Z,7.05
2018-02-01T14:23:20.026Z,6.98
2018-02-01T14:24:56.569Z,7.06
2018-02-01T14:26:33.363Z,7.03
2018-02-01T14:28:10.006Z,7.16
2018-02-01T14:29:46.312Z,7.16
2018-02-01T14:31:22.749Z,6.87
2018-02-01T14:32:59.450Z,6.84
2018-02-01T14:34:36.669Z,6.72
2018-02-01T14:36:13.145Z,6.67
2018-02-01T14:37:49.519Z,6.81
2018-02-01T14:39:26.412Z,7.02
2018-02-01T14:41:03.920Z,7.18
2018-02-01T14:42:41.026Z,7.09
2018-02-01T14:44:17.718Z,6.77
2018-02-01T14:45:54.317Z,6.98
2018-02-01T14:47:32.793Z,6.83
2018-02-01T14:49:09.595Z,6.49
2018-02-01T14:50:47.746Z,6.67
2018-02-01T14:52:24.611Z,6.83
2018-02-01T14:54:02.222Z,6.94
2018-02-01T14:55:39.314Z,7.03
2018-02-01T14:57:16.202Z,6.70
2018-02-01T14:58:53.094Z,6.70
2018-02-01T15:00:30.817Z,6.52
2018-02-01T15:02:07.306Z,6.71
2018-02-01T15:03:44.028Z,6.86
2018-02-01T15:05:20.939Z,6.70
2018-02-01T15:06:58.326Z,7.02
2018-02-01T15:08:35.120Z,7.14
2018-02-01T15:10:11.616Z,7.05
2018-02-01T15:11:49.020Z,6.86
2018-02-01T15:13:25.753Z,6.49
2018-02-01T15:15:02.479Z,6.68
2018-02-01T15:16:39.019Z,6.68
2018-02-01T15:18:16.760Z,7.04
2018-02-01T15:19:53.537Z,7.29
2018-02-01T15:21:30.282Z,7.24
2018-02-01T15:23:06.677Z,7.18
2018-02-01T15:24:43.571Z,7.41
2018-02-01T15:26:21.961Z,7.57
2018-02-01T15:27:58.964Z,7.51
2018-02-01T15:29:36.287Z,6.95
2018-02-01T15:31:13.434Z,6.82
2018-02-01T15:32:49.948Z,7.03
2018-02-01T15:34:27.419Z,7.30
2018-02-01T15:36:03.966Z,7.45
2018-02-01T15:37:40.592Z,7.40
2018-02-01T15:39:17.084Z,7.30
2018-02-01T15:40:54.306Z,7.27
2018-02-01T15:42:32.200Z,7.38
2018-02-01T15:44:09.373Z,7.58
2018-02-01T15:45:46.522Z,7.60
2018-02-01T15:47:23.106Z,7.57
2018-02-01T15:49:00.243Z,7.66
2018-02-01T15:50:37.317Z,7.64
2018-02-01T15:52:14.741Z,7.50
2018-02-01T15:53:51.767Z,7.57
2018-02-01T15:55:28.679Z,7.13
2018-02-01T15:57:07.994Z,6.95
2018-02-01T15:58:48.521Z,7.17
2018-02-01T16:00:27.666Z,7.38
2018-02-01T16:02:04.706Z,7.55
2018-02-01T16:03:43.769Z,7.32
2018-02-01T16:05:20.530Z,7.46
2018-02-01T16:06:57.333Z,7.47
2018-02-01T16:08:34.201Z,7.57
2018-02-01T16:10:11.392Z,7.73
2018-02-01T16:11:49.551Z,7.92
2018-02-01T16:13:29.189Z,7.97
2018-02-01T16:15:07.690Z,7.63
2018-02-01T16:16:45.304Z,7.56
2018-02-01T16:18:22.828Z,7.71
2018-02-01T16:20:00.368Z,7.84
2018-02-01T16:21:37.126Z,7.97
2018-02-01T16:23:14.028Z,8.07
2018-02-01T16:24:52.270Z,8.02
2018-02-01T16:26:30.383Z,7.46
2018-02-01T16:28:07.066Z,7.03
2018-02-01T16:29:45.212Z,7.02
2018-02-01T16:31:25.056Z,7.17
2018-02-01T16:33:03.423Z,7.32
2018-02-01T16:34:40.193Z,7.63
2018-02-01T16:36:17.078Z,7.65
2018-02-01T16:37:54.392Z,7.62
2018-02-01T16:39:33.362Z,7.28
2018-02-01T16:41:13.187Z,7.30
2018-02-01T16:42:53.215Z,7.57
2018-02-01T16:44:31.187Z,7.57
2018-02-01T16:46:10.422Z,7.67
2018-02-01T16:47:47.575Z,7.87
2018-02-01T16:49:25.806Z,7.87
2018-02-01T16:51:03.045Z,7.53
2018-02-01T16:52:43.240Z,7.37
2018-02-01T16:54:20.393Z,7.06
2018-02-01T16:55:59.410Z,7.27
2018-02-01T16:57:37.330Z,7.50
2018-02-01T16:59:15.824Z,7.17
2018-02-01T17:00:53.305Z,7.03
2018-02-01T17:02:33.256Z,7.24
2018-02-01T17:04:11.313Z,7.34
2018-02-01T17:05:49.653Z,7.41
2018-02-01T17:07:26.359Z,7.63
2018-02-01T17:09:04.553Z,7.95
2018-02-01T17:10:41.540Z,7.81
2018-02-01T17:12:20.716Z,7.72
2018-02-01T17:13:58.671Z,8.04
2018-02-01T17:15:38.875Z,8.08
2018-02-01T17:17:16.784Z,7.74
2018-02-01T17:18:54.047Z,7.62
2018-02-01T17:20:32.457Z,7.89
2018-02-01T17:22:11.213Z,8.09
2018-02-01T17:23:49.920Z,8.45
2018-02-01T17:25:28.235Z,8.43
2018-02-01T17:27:05.173Z,8.06
2018-02-01T17:28:45.511Z,7.93
2018-02-01T17:30:28.443Z,7.98
2018-02-01T17:32:06.748Z,7.80
2018-02-01T17:33:46.531Z,7.58
2018-02-01T17:35:26.346Z,7.29
2018-02-01T17:37:03.342Z,7.33
2018-02-01T17:38:41.680Z,7.84
2018-02-01T17:40:19.628Z,8.10
2018-02-01T17:42:02.167Z,8.27
2018-02-01T17:43:48.066Z,8.48
2018-02-01T17:45:30.584Z,8.46
2018-02-01T17:47:10.865Z,8.23
2018-02-01T17:48:50.727Z,8.42
2018-02-01T17:50:31.565Z,8.44
2018-02-01T17:52:10.079Z,8.06
2018-02-01T17:53:51.478Z,8.09
2018-02-01T17:55:30.751Z,7.85
2018-02-01T17:57:13.071Z,7.70
2018-02-01T17:58:54.831Z,8.06
2018-02-01T18:00:40.344Z,8.18
2018-02-01T18:02:19.315Z,8.47
2018-02-01T18:04:01.089Z,8.49
2018-02-01T18:05:40.440Z,8.62
2018-02-01T18:07:22.247Z,8.69
2018-02-01T18:09:06.200Z,8.74
2018-02-01T18:10:46.763Z,8.84
2018-02-01T18:12:30.919Z,8.84
2018-02-01T18:14:14.550Z,8.78
2018-02-01T18:15:55.134Z,8.42
2018-02-01T18:17:41.125Z,8.09
2018-02-01T18:19:22.882Z,8.30
2018-02-01T18:21:05.591Z,8.57
2018-02-01T18:22:47.380Z,8.60
2018-02-01T18:24:28.023Z,8.78
2018-02-01T18:26:09.763Z,8.33
2018-02-01T18:27:53.909Z,7.92
2018-02-01T18:29:37.586Z,7.57
2018-02-01T18:31:21.355Z,7.45
2018-02-01T18:33:06.993Z,7.28
2018-02-01T18:34:50.450Z,7.25
2018-02-01T18:36:38.234Z,7.30
2018-02-01T18:38:23.018Z,7.65
2018-02-01T18:40:06.557Z,7.68
2018-02-01T18:41:51.153Z,7.80
2018-02-01T18:43:31.898Z,7.70
2018-02-01T18:45:16.593Z,7.61
2018-02-01T18:47:01.351Z,7.66
2018-02-01T18:48:45.055Z,7.41
2018-02-01T18:50:31.027Z,7.29
2018-02-01T18:52:15.089Z,7.18
2018-02-01T18:54:00.301Z,7.08
2018-02-01T18:55:47.855Z,7.43
2018-02-01T18:57:34.835Z,7.56
2018-02-01T18:59:22.676Z,7.60
2018-02-01T19:01:08.324Z,8.12
2018-02-01T19:02:52.831Z,8.35
2018-02-01T19:04:36.279Z,8.40
2018-02-01T19:06:20.891Z,8.54
2018-02-01T19:08:08.278Z,8.59
2018-02-01T19:09:58.352Z,8.56
2018-02-01T19:11:45.613Z,8.35
2018-02-01T19:13:29.328Z,8.40
2018-02-01T19:15:15.926Z,8.12
2018-02-01T19:17:01.210Z,7.82
2018-02-01T19:18:45.326Z,7.68
2018-02-01T19:20:34.547Z,7.56
2018-02-01T19:22:17.407Z,7.00
2018-02-01T19:23:59.862Z,7.07
2018-02-01T19:25:44.137Z,6.87
2018-02-01T19:27:27.252Z,6.85
2018-02-01T19:29:15.595Z,6.66
2018-02-01T19:30:59.739Z,6.59
2018-02-01T19:32:44.346Z,6.47
2018-02-01T19:34:28.292Z,6.66
2018-02-01T19:36:18.658Z,6.48
2018-02-01T19:38:05.967Z,6.90
2018-02-01T19:39:52.731Z,6.99
2018-02-01T19:41:40.586Z,7.31
2018-02-01T19:43:24.922Z,7.03
2018-02-01T19:45:09.579Z,6.88
2018-02-01T19:46:55.457Z,6.79
2018-02-01T19:48:42.783Z,6.84
2018-02-01T19:50:44.606Z,6.80
2018-02-01T19:52:29.239Z,6.86
2018-02-01T19:54:13.555Z,7.14
2018-02-01T19:56:02.146Z,7.37
2018-02-01T19:57:44.080Z,7.69
2018-02-01T19:59:27.446Z,7.08
2018-02-01T20:01:14.496Z,7.12
2018-02-01T20:03:01.870Z,7.27
2018-02-01T20:04:52.523Z,7.12
2018-02-01T20:06:43.340Z,7.01
2018-02-01T20:08:24.426Z,7.00
2018-02-01T20:10:07.999Z,6.74
2018-02-01T20:11:50.214Z,6.59
2018-02-01T20:13:38.603Z,6.46
2018-02-01T20:15:22.298Z,6.14
2018-02-01T20:17:04.562Z,6.02
2018-02-01T20:18:49.700Z,6.25
2018-02-01T20:20:35.758Z,6.01
2018-02-01T20:22:22.184Z,5.99
2018-02-01T20:24:09.819Z,6.15
2018-02-01T20:25:57.803Z,6.16
2018-02-01T20:27:48.297Z,6.09
2018-02-01T20:29:31.992Z,5.78
2018-02-01T20:31:16.331Z,6.00
2018-02-01T20:32:58.212Z,6.14
2018-02-01T20:34:38.899Z,6.35
2018-02-01T20:36:20.021Z,6.81
2018-02-01T20:37:59.457Z,7.02
2018-02-01T20:39:41.634Z,6.99
2018-02-01T20:41:21.961Z,6.98
2018-02-01T20:43:02.951Z,7.12
2018-02-01T20:44:44.103Z,7.01
2018-02-01T20:46:24.487Z,7.16
2018-02-01T20:48:07.036Z,7.20
2018-02-01T20:49:48.362Z,7.35
2018-02-01T20:51:28.043Z,7.49
2018-02-01T20:54:52.374Z,7.53
2018-02-01T20:56:30.538Z,7.50
2018-02-01T20:58:09.123Z,7.57
2018-02-01T20:59:47.382Z,7.53
2018-02-01T21:01:26.056Z,7.54
2018-02-01T21:03:07.452Z,7.66
2018-02-01T21:04:46.208Z,7.72
2018-02-01T21:06:25.357Z,7.79
2018-02-01T21:08:06.506Z,7.56
2018-02-01T21:09:45.174Z,7.63
2018-02-01T21:11:26.691Z,7.62
2018-02-01T21:13:07.455Z,7.44
2018-02-01T21:14:45.595Z,7.15
2018-02-01T21:16:24.874Z,7.34
2018-02-01T21:18:15.336Z,7.54
2018-02-01T21:19:53.478Z,7.14
2018-02-01T21:21:31.579Z,7.26
2018-02-01T21:23:11.868Z,7.37
2018-02-01T21:24:51.295Z,7.16
2018-02-01T21:26:28.041Z,7.35
2018-02-01T21:28:06.389Z,7.42
2018-02-01T21:29:44.541Z,7.59
2018-02-01T21:31:22.954Z,7.71
2018-02-01T21:33:00.790Z,7.63
2018-02-01T21:34:37.667Z,7.66
2018-02-01T21:36:17.010Z,7.44
2018-02-01T21:37:55.128Z,7.38
2018-02-01T21:39:37.022Z,7.51
2018-02-01T21:41:14.584Z,7.54
2018-02-01T21:42:52.048Z,7.43
2018-02-01T21:44:29.242Z,7.37
2018-02-01T21:46:07.137Z,7.30
2018-02-01T21:47:44.960Z,7.21
2018-02-01T21:49:26.249Z,7.28
2018-02-01T21:51:05.804Z,7.30